createdAt,value
2018-11-28T00:04:44.800Z,94525.8
2018-11-28T00:09:41.780Z,94471.5
2018-11-28T00:14:38.710Z,94534.5
2018-11-28T00:19:35.614Z,94540.5
2018-11-28T00:24:32.447Z,94549.2
2018-11-28T00:29:29.106Z,94566.2
2018-11-28T00:34:26.037Z,94558.2
2018-11-28T00:39:22.906Z,94570.4
2018-11-28T00:44:19.735Z,94569.7
2018-11-28T00:49:16.592Z,94574.9
2018-11-28T00:54:13.632Z,94575.1
2018-11-28T00:59:10.351Z,94583.4
2018-11-28T01:19:42.551Z,94586.4
2018-11-28T01:24:39.373Z,94584.8
2018-11-28T01:29:36.115Z,94582.6
2018-11-28T01:34:33.148Z,94579.7
2018-11-28T01:39:29.412Z,94593.4
2018-11-28T01:44:26.291Z,94585.2
2018-11-28T01:49:23.249Z,94595
2018-11-28T01:54:20.187Z,94603.4
2018-11-28T01:59:17.180Z,94480.9
2018-11-28T02:04:14.270Z,94619
2018-11-28T02:09:10.912Z,94620.7
2018-11-28T02:14:08.022Z,94627.9
2018-11-28T02:19:05.248Z,94631
2018-11-28T02:24:01.328Z,94644.8
2018-11-28T02:28:58.370Z,94650.8
2018-11-28T02:33:55.529Z,94668.9
2018-11-28T02:38:52.155Z,94621.7
2018-11-28T02:43:49.043Z,94681.6
2018-11-28T02:48:45.802Z,94683.5
2018-11-28T02:53:42.651Z,94687.3
2018-11-28T02:58:39.721Z,94611.3
2018-11-28T03:03:36.519Z,94703.8
2018-11-28T03:08:33.282Z,94628.8
2018-11-28T03:13:30.059Z,94638.3
2018-11-28T03:18:27.050Z,94643.5
2018-11-28T03:23:24.141Z,94740.2
2018-11-28T03:28:21.092Z,94749.2
2018-11-28T03:33:17.825Z,94678.5
2018-11-28T03:38:14.715Z,94761.1
2018-11-28T03:43:11.419Z,94764.2
2018-11-28T03:53:04.907Z,94779.6
2018-11-28T03:58:01.829Z,94782.7
2018-11-28T04:02:58.561Z,94794.2
2018-11-28T04:07:56.230Z,94795
2018-11-28T04:12:52.925Z,94809.7
2018-11-28T04:17:49.778Z,94797.7
2018-11-28T04:22:46.647Z,94827.9
2018-11-28T04:27:43.613Z,94841
2018-11-28T04:32:40.521Z,94805
2018-11-28T04:37:37.326Z,94836.4
2018-11-28T04:42:34.062Z,94846.7
2018-11-28T04:47:31.017Z,94854.6
2018-11-28T04:52:27.745Z,94852.9
2018-11-28T04:57:25.050Z,94865.9
2018-11-28T05:02:22.149Z,94864
2018-11-28T05:07:19.009Z,94871.8
2018-11-28T05:12:15.846Z,94887.8
2018-11-28T05:17:13.257Z,94887.5
2018-11-28T05:22:09.929Z,94886.3
2018-11-28T05:27:06.750Z,94909.7
2018-11-28T05:32:03.609Z,94913.2
2018-11-28T05:37:00.298Z,94924.2
2018-11-28T05:41:57.123Z,94936.9
2018-11-28T05:46:54.197Z,94910.9
2018-11-28T05:51:51.145Z,94956
2018-11-28T05:56:48.347Z,94958.8
2018-11-28T06:01:45.286Z,94968.7
2018-11-28T06:06:42.244Z,94971.5
2018-11-28T06:11:39.218Z,94978.7
2018-11-28T06:16:36.209Z,94992.5
2018-11-28T06:21:33.052Z,94993
2018-11-28T06:26:29.542Z,95011.6
2018-11-28T06:31:26.569Z,95018.8
2018-11-28T06:36:23.470Z,95036.2
2018-11-28T06:41:20.146Z,95041.9
2018-11-28T06:46:16.930Z,95044.9
2018-11-28T06:51:13.720Z,95051.6
2018-11-28T06:56:11.188Z,95070
2018-11-28T07:01:08.200Z,95076.7
2018-11-28T07:06:04.899Z,95075.9
2018-11-28T07:11:01.708Z,95090.1
2018-11-28T07:15:58.664Z,95095.7
2018-11-28T07:20:55.337Z,95102.6
2018-11-28T07:25:52.118Z,95107.6
2018-11-28T07:30:48.969Z,95109.3
2018-11-28T07:35:45.859Z,95110.2
2018-11-28T07:40:42.687Z,95126.1
2018-11-28T07:45:39.467Z,95131.8
2018-11-28T07:50:35.953Z,95143
2018-11-28T07:55:32.894Z,95149.1
2018-11-28T08:00:30.448Z,95158.9
2018-11-28T08:05:28.244Z,95124
2018-11-28T08:10:24.091Z,95175.4
2018-11-28T08:15:20.821Z,95184.6
2018-11-28T08:20:18.064Z,95193.6
2018-11-28T08:25:14.436Z,95199.7
2018-11-28T08:30:10.965Z,95210
2018-11-28T08:35:07.473Z,95222.5
2018-11-28T08:40:04.280Z,95233.7
2018-11-28T08:45:00.367Z,95235.6
2018-11-28T08:49:57.389Z,95237.7
2018-11-28T08:54:54.286Z,95243.6
2018-11-28T08:59:51.566Z,95252.8
2018-11-28T09:04:48.312Z,95257.6
2018-11-28T09:09:44.767Z,95366.2
2018-11-28T09:14:40.742Z,95272.2
2018-11-28T09:19:37.340Z,95273.1
2018-11-28T09:24:30.610Z,95270.2
2018-11-28T09:29:27.540Z,95280.2
2018-11-28T09:34:24.356Z,95275.5
2018-11-28T09:39:21.347Z,95285
2018-11-28T09:44:18.253Z,95288.1
2018-11-28T09:49:15.221Z,95289.6
2018-11-28T09:54:12.103Z,95299.6
2018-11-28T09:59:09.700Z,95298.4
2018-11-28T10:04:06.381Z,95271.4
2018-11-28T10:09:02.802Z,95303.5
2018-11-28T10:13:59.579Z,95314.7
2018-11-28T10:18:56.370Z,95313.4
2018-11-28T10:23:53.121Z,95322.9
2018-11-28T10:28:49.471Z,95319
2018-11-28T10:33:46.436Z,95331
2018-11-28T10:38:42.896Z,95326.4
2018-11-28T10:43:39.700Z,95331.6
2018-11-28T10:48:36.427Z,95338.2
2018-11-28T10:53:33.341Z,95310.9
2018-11-28T10:58:30.444Z,95344.9
2018-11-28T11:03:27.401Z,95346.1
2018-11-28T11:08:24.392Z,95347.1
2018-11-28T11:13:21.380Z,95352.2
2018-11-28T11:18:18.129Z,95352.1
2018-11-28T11:23:14.842Z,95364.2
2018-11-28T11:28:11.753Z,95369.1
2018-11-28T11:33:08.325Z,95379.4
2018-11-28T11:38:05.032Z,95388.6
2018-11-28T11:43:01.823Z,95390.8
2018-11-28T11:47:58.823Z,95396.3
2018-11-28T11:52:55.273Z,95398.4
2018-11-28T11:57:53.443Z,95403.1
2018-11-28T12:02:49.009Z,95410.2
2018-11-28T12:07:45.730Z,95409.5
2018-11-28T12:12:42.524Z,95415.5
2018-11-28T12:17:39.681Z,95419.6
2018-11-28T12:22:36.110Z,95423
2018-11-28T12:27:32.585Z,95437.9
2018-11-28T12:32:29.680Z,95440.5
2018-11-28T12:37:26.501Z,95452.4
2018-11-28T12:42:23.494Z,95457.9
2018-11-28T12:47:20.293Z,95469.7
2018-11-28T12:52:17.398Z,95470.2
2018-11-28T12:57:14.121Z,95476.4
2018-11-28T13:02:10.736Z,95488.5
2018-11-28T13:07:07.637Z,95492.7
2018-11-28T13:12:04.354Z,95500
2018-11-28T13:17:01.167Z,95505.6
2018-11-28T13:21:58.125Z,95519
2018-11-28T13:26:54.480Z,95535.9
2018-11-28T13:31:51.813Z,95542
2018-11-28T13:36:48.586Z,95553.6
2018-11-28T13:41:45.481Z,95567.4
2018-11-28T13:46:41.909Z,95574.8
2018-11-28T13:51:38.993Z,95581.7
2018-11-28T14:01:32.368Z,95543.5
2018-11-28T14:06:29.342Z,95605.5
2018-11-28T14:11:26.249Z,95615.3
2018-11-28T14:16:23.015Z,95624.5
2018-11-28T14:21:19.900Z,95628.6
2018-11-28T14:26:16.758Z,95639.5
2018-11-28T14:31:13.716Z,95658.3
2018-11-28T14:36:10.171Z,95655.7
2018-11-28T14:41:07.253Z,95668.7
2018-11-28T14:46:03.781Z,95673.5
2018-11-28T14:51:00.864Z,95686
2018-11-28T14:55:57.303Z,95696
2018-11-28T15:00:54.219Z,95702.9
2018-11-28T15:05:50.468Z,95718.6
2018-11-28T15:10:48.518Z,95691
2018-11-28T15:15:45.828Z,95743
2018-11-28T15:20:42.580Z,95750.9
2018-11-28T15:25:39.416Z,95757.1
2018-11-28T15:30:36.079Z,95767.6
2018-11-28T15:35:32.941Z,95775.8
2018-11-28T15:40:29.700Z,95786.9
2018-11-28T15:45:27.206Z,95793.4
2018-11-28T15:50:24.680Z,95795.3
2018-11-28T15:55:21.277Z,95803.8
2018-11-28T16:00:18.398Z,95816.7
2018-11-28T16:05:15.315Z,95827.7
2018-11-28T16:10:11.620Z,95833.4
2018-11-28T16:15:08.223Z,95807.6
2018-11-28T16:20:05.186Z,95836
2018-11-28T16:25:02.066Z,95851.6
2018-11-28T16:29:58.585Z,95859.2
2018-11-28T16:34:55.509Z,95868.7
2018-11-28T16:39:52.257Z,95881.5
2018-11-28T16:44:48.923Z,95894
2018-11-28T16:49:46.095Z,95894.7
2018-11-28T16:54:42.949Z,95901.7
2018-11-28T16:59:39.562Z,95916.3
2018-11-28T17:04:36.213Z,95921
2018-11-28T17:09:33.109Z,95929.3
2018-11-28T17:14:29.853Z,95930.5
2018-11-28T17:19:26.637Z,95939.6
2018-11-28T17:24:23.595Z,95954.6
2018-11-28T17:29:20.563Z,96035.9
2018-11-28T17:34:17.128Z,95968.5
2018-11-28T17:39:13.868Z,95980.1
2018-11-28T17:44:10.625Z,95982.1
2018-11-28T17:49:07.808Z,95988.5
2018-11-28T17:54:04.809Z,95994.8
2018-11-28T17:59:01.750Z,95998.6
2018-11-28T18:03:58.295Z,96011.4
2018-11-28T18:08:56.102Z,96014.2
2018-11-28T18:13:52.570Z,96017.1
2018-11-28T18:18:49.367Z,96022
2018-11-28T18:23:46.609Z,96031.9
2018-11-28T18:28:43.429Z,96036
2018-11-28T18:33:40.440Z,96041.9
2018-11-28T18:38:39.331Z,96045.1
2018-11-28T18:43:36.081Z,96050.6
2018-11-28T18:48:32.468Z,96057
2018-11-28T18:53:29.237Z,95969.2
2018-11-28T18:58:26.266Z,96072.7
2018-11-28T19:03:23.963Z,96077.3
2018-11-28T19:08:20.010Z,96091.6
2018-11-28T19:13:18.151Z,96095.3
2018-11-28T19:18:13.894Z,96104
2018-11-28T19:23:11.542Z,96102.3
2018-11-28T19:28:08.253Z,96108.5
2018-11-28T19:33:05.061Z,96120.1
2018-11-28T19:38:01.833Z,96121.2
2018-11-28T19:42:58.349Z,96126
2018-11-28T19:47:55.150Z,96140
2018-11-28T19:52:51.805Z,96144.5
2018-11-28T19:57:48.775Z,96150.1
2018-11-28T20:02:45.678Z,96153
2018-11-28T20:07:42.559Z,96166.2
2018-11-28T20:12:39.383Z,96172.7
2018-11-28T20:17:36.334Z,96173.7
2018-11-28T20:22:33.327Z,96183.1
2018-11-28T20:27:29.965Z,96188.3
2018-11-28T20:32:26.742Z,96192.3
2018-11-28T20:37:23.437Z,96194.9
2018-11-28T20:42:20.072Z,96197.9
2018-11-28T20:47:16.722Z,96207.9
2018-11-28T20:52:13.295Z,96213.3
2018-11-28T20:57:09.794Z,96224.4
2018-11-28T21:02:06.864Z,96240
2018-11-28T21:07:03.584Z,96240.1
2018-11-28T21:12:00.439Z,96241.4
2018-11-28T21:16:57.544Z,96244.6
2018-11-28T21:21:54.239Z,96247.7
2018-11-28T21:26:51.142Z,96257.6
2018-11-28T21:31:47.866Z,96257.6
2018-11-28T21:36:44.656Z,96261.4
2018-11-28T21:41:41.361Z,96267.1
2018-11-28T21:46:38.072Z,96271.7
2018-11-28T21:51:34.805Z,96280.6
2018-11-28T21:56:31.828Z,96235.8
2018-11-28T22:01:28.764Z,96292
2018-11-28T22:06:26.235Z,96299.7
2018-11-28T22:11:22.896Z,96300.8
2018-11-28T22:16:19.742Z,96302.3
2018-11-28T22:21:16.281Z,96302.9
2018-11-28T22:26:12.674Z,96305.7
2018-11-28T22:31:09.227Z,96303.9
2018-11-28T22:36:05.934Z,96297.7
2018-11-28T22:41:02.691Z,96306.2
2018-11-28T22:45:59.438Z,96312.7
2018-11-28T22:50:56.350Z,96315
2018-11-28T22:55:53.208Z,96294.8
2018-11-28T23:00:49.825Z,96335.6
2018-11-28T23:05:46.635Z,96326.1
2018-11-28T23:10:43.452Z,96331.4
2018-11-28T23:15:40.170Z,96335.8
2018-11-28T23:20:37.037Z,96340.7
2018-11-28T23:25:33.827Z,96336.6
2018-11-28T23:30:30.274Z,96336.2
2018-11-28T23:35:26.978Z,96349.8
2018-11-28T23:40:23.833Z,96346.2
2018-11-28T23:45:20.884Z,96348.5
2018-11-28T23:50:17.644Z,96345.8
2018-11-28T23:55:14.935Z,96356.6
